sensor_id;sensor_type;location;lat;lon;timestamp;pressure;altitude;pressure_sealevel;temperature;humidity
43039;BME280;62252;50.668;19.530;2022-11-25T00:02:42;98034.06;;;-1.59;100.00
43039;BME280;62252;50.668;19.530;2022-11-25T00:05:15;98040.00;;;-1.55;100.00
43039;BME280;62252;50.668;19.530;2022-11-25T00:07:49;98031.41;;;-1.54;100.00
43039;BME280;62252;50.668;19.530;2022-11-25T00:10:24;98029.69;;;-1.55;100.00
43039;BME280;62252;50.668;19.530;2022-11-25T00:13:00;98034.06;;;-1.59;100.00
43039;BME280;62252;50.668;19.530;2022-11-25T00:15:34;98033.25;;;-1.62;100.00
43039;BME280;62252;50.668;19.530;2022-11-25T00:18:08;98038.31;;;-1.56;100.00
43039;BME280;62252;50.668;19.530;2022-11-25T00:20:42;98024.53;;;-1.55;100.00
43039;BME280;62252;50.668;19.530;2022-11-25T00:23:15;98025.22;;;-1.43;100.00
43039;BME280;62252;50.668;19.530;2022-11-25T00:25:52;98025.09;;;-1.35;100.00
43039;BME280;62252;50.668;19.530;2022-11-25T00:28:30;98012.56;;;-1.58;100.00
43039;BME280;62252;50.668;19.530;2022-11-25T00:31:09;98018.63;;;-1.60;100.00
43039;BME280;62252;50.668;19.530;2022-11-25T00:33:45;98020.75;;;-1.33;100.00
43039;BME280;62252;50.668;19.530;2022-11-25T00:36:24;98020.25;;;-1.55;100.00
43039;BME280;62252;50.668;19.530;2022-11-25T00:38:59;98020.22;;;-1.52;100.00
43039;BME280;62252;50.668;19.530;2022-11-25T00:41:33;98028.03;;;-1.58;100.00
43039;BME280;62252;50.668;19.530;2022-11-25T00:44:22;98019.44;;;-1.60;100.00
43039;BME280;62252;50.668;19.530;2022-11-25T00:47:09;98021.94;;;-1.54;100.00
43039;BME280;62252;50.668;19.530;2022-11-25T00:49:45;98021.91;;;-1.51;100.00
43039;BME280;62252;50.668;19.530;2022-11-25T00:52:22;98019.31;;;-1.49;100.00
43039;BME280;62252;50.668;19.530;2022-11-25T00:54:56;98027.06;;;-1.51;100.00
43039;BME280;62252;50.668;19.530;2022-11-25T00:57:30;98023.66;;;-1.54;100.00
43039;BME280;62252;50.668;19.530;2022-11-25T01:00:10;98028.41;;;-1.27;100.00
43039;BME280;62252;50.668;19.530;2022-11-25T01:02:47;98023.56;;;-1.47;100.00
43039;BME280;62252;50.668;19.530;2022-11-25T01:05:21;98030.13;;;-1.28;100.00
43039;BME280;62252;50.668;19.530;2022-11-25T01:07:55;98025.03;;;-1.32;100.00
43039;BME280;62252;50.668;19.530;2022-11-25T01:10:29;98024.97;;;-1.28;100.00
43039;BME280;62252;50.668;19.530;2022-11-25T01:13:03;98018.19;;;-1.35;100.00
43039;BME280;62252;50.668;19.530;2022-11-25T01:15:40;98024.22;;;-1.34;100.00
43039;BME280;62252;50.668;19.530;2022-11-25T01:18:14;98016.59;;;-1.42;100.00
43039;BME280;62252;50.668;19.530;2022-11-25T01:20:53;98011.66;;;-1.04;100.00
43039;BME280;62252;50.668;19.530;2022-11-25T01:23:28;98022.16;;;-1.16;100.00
43039;BME280;62252;50.668;19.530;2022-11-25T01:26:03;98020.34;;;-1.09;100.00
43039;BME280;62252;50.668;19.530;2022-11-25T01:28:38;98021.09;;;-1.03;100.00
43039;BME280;62252;50.668;19.530;2022-11-25T01:31:17;98015.09;;;-1.05;100.00
43039;BME280;62252;50.668;19.530;2022-11-25T01:33:54;98026.50;;;-1.16;100.00
43039;BME280;62252;50.668;19.530;2022-11-25T01:36:29;98017.72;;;-1.08;100.00
43039;BME280;62252;50.668;19.530;2022-11-25T01:39:03;98025.59;;;-1.15;100.00
43039;BME280;62252;50.668;19.530;2022-11-25T01:41:40;98025.38;;;-1.03;100.00
43039;BME280;62252;50.668;19.530;2022-11-25T01:44:15;98031.88;;;-1.30;100.00
43039;BME280;62252;50.668;19.530;2022-11-25T01:46:59;98033.19;;;-1.08;100.00
43039;BME280;62252;50.668;19.530;2022-11-25T01:49:38;98028.47;;;-0.83;100.00
43039;BME280;62252;50.668;19.530;2022-11-25T01:52:18;98025.31;;;-0.99;100.00
43039;BME280;62252;50.668;19.530;2022-11-25T01:54:58;98020.25;;;-1.05;100.00
43039;BME280;62252;50.668;19.530;2022-11-25T01:57:38;98027.72;;;-0.90;100.00
43039;BME280;62252;50.668;19.530;2022-11-25T02:00:14;98035.84;;;-1.11;100.00
43039;BME280;62252;50.668;19.530;2022-11-25T02:02:52;98036.19;;;-1.30;100.00
43039;BME280;62252;50.668;19.530;2022-11-25T02:05:34;98030.31;;;-1.40;100.00
43039;BME280;62252;50.668;19.530;2022-11-25T02:08:11;98026.50;;;-1.16;100.00
43039;BME280;62252;50.668;19.530;2022-11-25T02:10:46;98027.28;;;-1.14;100.00
43039;BME280;62252;50.668;19.530;2022-11-25T02:13:21;98024.50;;;-1.02;100.00
43039;BME280;62252;50.668;19.530;2022-11-25T02:15:56;98017.47;;;-0.93;100.00
43039;BME280;62252;50.668;19.530;2022-11-25T02:18:33;98023.22;;;-1.26;100.00
43039;BME280;62252;50.668;19.530;2022-11-25T02:21:07;98031.47;;;-1.06;100.00
43039;BME280;62252;50.668;19.530;2022-11-25T02:23:51;98028.00;;;-1.05;100.00
43039;BME280;62252;50.668;19.530;2022-11-25T02:26:31;98020.84;;;-0.89;100.00
43039;BME280;62252;50.668;19.530;2022-11-25T02:29:08;98040.22;;;-1.16;100.00
43039;BME280;62252;50.668;19.530;2022-11-25T02:31:44;98038.00;;;-0.88;100.00
43039;BME280;62252;50.668;19.530;2022-11-25T02:34:21;98032.72;;;-0.81;100.00
43039;BME280;62252;50.668;19.530;2022-11-25T02:36:58;98035.91;;;-1.14;100.00
43039;BME280;62252;50.668;19.530;2022-11-25T02:39:39;98043.63;;;-1.14;100.00
43039;BME280;62252;50.668;19.530;2022-11-25T02:42:18;98046.09;;;-1.08;100.00
43039;BME280;62252;50.668;19.530;2022-11-25T02:44:52;98042.41;;;-0.93;100.00
43039;BME280;62252;50.668;19.530;2022-11-25T02:47:27;98052.31;;;-1.18;100.00
43039;BME280;62252;50.668;19.530;2022-11-25T02:50:00;98054.03;;;-1.18;100.00
43039;BME280;62252;50.668;19.530;2022-11-25T02:52:34;98048.53;;;-0.99;100.00
43039;BME280;62252;50.668;19.530;2022-11-25T02:55:10;98057.09;;;-0.97;100.00
43039;BME280;62252;50.668;19.530;2022-11-25T02:57:48;98060.97;;;-1.22;100.00
43039;BME280;62252;50.668;19.530;2022-11-25T03:00:23;98049.50;;;-1.04;100.00
43039;BME280;62252;50.668;19.530;2022-11-25T03:02:59;98056.75;;;-1.26;100.00
43039;BME280;62252;50.668;19.530;2022-11-25T03:05:33;98065.03;;;-1.09;100.00
43039;BME280;62252;50.668;19.530;2022-11-25T03:08:07;98067.00;;;-1.24;100.00
43039;BME280;62252;50.668;19.530;2022-11-25T03:10:42;98063.31;;;-1.07;100.00
43039;BME280;62252;50.668;19.530;2022-11-25T03:13:22;98068.75;;;-1.25;100.00
43039;BME280;62252;50.668;19.530;2022-11-25T03:15:56;98066.06;;;-1.19;100.00
43039;BME280;62252;50.668;19.530;2022-11-25T03:18:30;98065.44;;;-1.31;100.00
43039;BME280;62252;50.668;19.530;2022-11-25T03:21:04;98065.31;;;-1.25;100.00
43039;BME280;62252;50.668;19.530;2022-11-25T03:23:38;98074.72;;;-1.23;100.00
43039;BME280;62252;50.668;19.530;2022-11-25T03:26:11;98065.00;;;-1.06;100.00
43039;BME280;62252;50.668;19.530;2022-11-25T03:28:48;98064.06;;;-1.02;100.00
43039;BME280;62252;50.668;19.530;2022-11-25T03:31:23;98066.13;;;-1.22;100.00
43039;BME280;62252;50.668;19.530;2022-11-25T03:33:57;98065.66;;;-0.95;100.00
43039;BME280;62252;50.668;19.530;2022-11-25T03:36:34;98069.66;;;-1.26;100.00
43039;BME280;62252;50.668;19.530;2022-11-25T03:39:09;98073.72;;;-1.13;100.00
43039;BME280;62252;50.668;19.530;2022-11-25T03:41:42;98077.34;;;-1.24;100.00
43039;BME280;62252;50.668;19.530;2022-11-25T03:44:22;98078.06;;;-1.15;100.00
43039;BME280;62252;50.668;19.530;2022-11-25T03:46:56;98080.78;;;-1.24;100.00
43039;BME280;62252;50.668;19.530;2022-11-25T03:49:30;98084.97;;;-1.18;100.00
43039;BME280;62252;50.668;19.530;2022-11-25T03:52:04;98080.78;;;-1.24;100.00
43039;BME280;62252;50.668;19.530;2022-11-25T03:54:38;98086.69;;;-1.17;100.00
43039;BME280;62252;50.668;19.530;2022-11-25T03:57:20;98086.38;;;-0.98;100.00
43039;BME280;62252;50.668;19.530;2022-11-25T03:59:57;98086.66;;;-1.16;100.00
43039;BME280;62252;50.668;19.530;2022-11-25T04:02:45;98078.22;;;-1.27;100.00
43039;BME280;62252;50.668;19.530;2022-11-25T04:05:19;98089.16;;;-1.10;100.00
43039;BME280;62252;50.668;19.530;2022-11-25T04:07:57;98085.34;;;-0.88;100.00
43039;BME280;62252;50.668;19.530;2022-11-25T04:10:35;98087.75;;;-0.79;100.00
43039;BME280;62252;50.668;19.530;2022-11-25T04:13:10;98085.16;;;-0.79;100.00
43039;BME280;62252;50.668;19.530;2022-11-25T04:15:49;98091.47;;;-0.95;100.00
43039;BME280;62252;50.668;19.530;2022-11-25T04:18:25;98090.56;;;-0.92;100.00
43039;BME280;62252;50.668;19.530;2022-11-25T04:21:00;98091.78;;;-1.13;100.00
43039;BME280;62252;50.668;19.530;2022-11-25T04:23:34;98090.00;;;-1.09;100.00
43039;BME280;62252;50.668;19.530;2022-11-25T04:26:11;98091.66;;;-1.04;100.00
43039;BME280;62252;50.668;19.530;2022-11-25T04:28:46;98093.56;;;-1.16;100.00
43039;BME280;62252;50.668;19.530;2022-11-25T04:31:22;98091.66;;;-1.04;100.00
43039;BME280;62252;50.668;19.530;2022-11-25T04:33:56;98085.59;;;-1.03;100.00
43039;BME280;62252;50.668;19.530;2022-11-25T04:36:30;98090.16;;;-1.18;100.00
43039;BME280;62252;50.668;19.530;2022-11-25T04:39:05;98095.13;;;-1.08;100.00
43039;BME280;62252;50.668;19.530;2022-11-25T04:41:38;98092.69;;;-1.15;100.00
43039;BME280;62252;50.668;19.530;2022-11-25T04:44:14;98102.06;;;-1.11;100.00
43039;BME280;62252;50.668;19.530;2022-11-25T04:46:50;98111.56;;;-1.13;100.00
43039;BME280;62252;50.668;19.530;2022-11-25T04:49:25;98113.06;;;-0.99;100.00
43039;BME280;62252;50.668;19.530;2022-11-25T04:51:58;98104.72;;;-1.16;100.00
43039;BME280;62252;50.668;19.530;2022-11-25T04:54:32;98119.69;;;-0.86;100.00
43039;BME280;62252;50.668;19.530;2022-11-25T04:57:06;98116.41;;;-0.94;100.00
43039;BME280;62252;50.668;19.530;2022-11-25T04:59:40;98121.97;;;-1.18;100.00
43039;BME280;62252;50.668;19.530;2022-11-25T05:02:19;98123.47;;;-1.05;100.00
43039;BME280;62252;50.668;19.530;2022-11-25T05:05:13;98124.50;;;-1.15;100.00
43039;BME280;62252;50.668;19.530;2022-11-25T05:07:47;98124.34;;;-1.06;100.00
43039;BME280;62252;50.668;19.530;2022-11-25T05:10:22;98125.44;;;-1.20;100.00
43039;BME280;62252;50.668;19.530;2022-11-25T05:12:59;98133.91;;;-1.12;100.00
43039;BME280;62252;50.668;19.530;2022-11-25T05:15:32;98131.44;;;-1.20;100.00
43039;BME280;62252;50.668;19.530;2022-11-25T05:18:11;98133.91;;;-1.12;100.00
43039;BME280;62252;50.668;19.530;2022-11-25T05:20:45;98131.19;;;-1.05;100.00
43039;BME280;62252;50.668;19.530;2022-11-25T05:23:21;98126.28;;;-1.20;100.00
43039;BME280;62252;50.668;19.530;2022-11-25T05:25:58;98136.47;;;-1.11;100.00
43039;BME280;62252;50.668;19.530;2022-11-25T05:28:42;98139.13;;;-1.17;100.00
43039;BME280;62252;50.668;19.530;2022-11-25T05:31:16;98143.41;;;-1.14;100.00
43039;BME280;62252;50.668;19.530;2022-11-25T05:33:53;98138.19;;;-1.10;100.00
43039;BME280;62252;50.668;19.530;2022-11-25T05:36:27;98150.13;;;-1.04;100.00
43039;BME280;62252;50.668;19.530;2022-11-25T05:39:01;98142.38;;;-1.04;100.00
43039;BME280;62252;50.668;19.530;2022-11-25T05:41:55;98146.59;;;-0.97;100.00
43039;BME280;62252;50.668;19.530;2022-11-25T05:44:28;98155.34;;;-1.09;100.00
43039;BME280;62252;50.668;19.530;2022-11-25T05:47:02;98153.56;;;-1.04;100.00
43039;BME280;62252;50.668;19.530;2022-11-25T05:49:40;98153.38;;;-0.92;100.00
43039;BME280;62252;50.668;19.530;2022-11-25T05:52:14;98156.94;;;-1.00;100.00
43039;BME280;62252;50.668;19.530;2022-11-25T05:54:53;98155.06;;;-0.91;100.00
43039;BME280;62252;50.668;19.530;2022-11-25T05:57:27;98161.31;;;-0.54;100.00
43039;BME280;62252;50.668;19.530;2022-11-25T06:00:09;98163.63;;;-0.87;100.00
43039;BME280;62252;50.668;19.530;2022-11-25T06:02:49;98162.59;;;-0.79;100.00
43039;BME280;62252;50.668;19.530;2022-11-25T06:05:26;98173.81;;;-0.80;100.00
43039;BME280;62252;50.668;19.530;2022-11-25T06:08:01;98171.06;;;-0.69;100.00
43039;BME280;62252;50.668;19.530;2022-11-25T06:10:38;58987.19;;;-142.06;100.00
43039;BME280;62252;50.668;19.530;2022-11-25T06:13:12;58987.19;;;-142.06;100.00
43039;BME280;62252;50.668;19.530;2022-11-25T06:15:46;58987.19;;;-142.06;100.00
43039;BME280;62252;50.668;19.530;2022-11-25T06:18:21;58987.19;;;-142.06;100.00
43039;BME280;62252;50.668;19.530;2022-11-25T06:20:59;58987.19;;;-142.06;100.00
43039;BME280;62252;50.668;19.530;2022-11-25T06:23:34;58987.19;;;-142.06;100.00
43039;BME280;62252;50.668;19.530;2022-11-25T06:26:16;58987.19;;;-142.06;100.00
43039;BME280;62252;50.668;19.530;2022-11-25T06:28:53;58987.19;;;-142.06;100.00
43039;BME280;62252;50.668;19.530;2022-11-25T06:31:27;58987.19;;;-142.06;100.00
43039;BME280;62252;50.668;19.530;2022-11-25T06:34:36;58987.19;;;-142.06;100.00
43039;BME280;62252;50.668;19.530;2022-11-25T06:37:48;58987.19;;;-142.06;100.00
43039;BME280;62252;50.668;19.530;2022-11-25T06:40:25;58987.19;;;-142.06;100.00
43039;BME280;62252;50.668;19.530;2022-11-25T06:43:03;58987.19;;;-142.06;100.00
43039;BME280;62252;50.668;19.530;2022-11-25T06:45:37;58987.19;;;-142.06;100.00
43039;BME280;62252;50.668;19.530;2022-11-25T06:48:11;58987.19;;;-142.06;100.00
43039;BME280;62252;50.668;19.530;2022-11-25T06:50:49;58987.19;;;-142.06;100.00
43039;BME280;62252;50.668;19.530;2022-11-25T06:53:31;58987.19;;;-142.06;100.00
43039;BME280;62252;50.668;19.530;2022-11-25T06:56:11;58987.19;;;-142.06;100.00
43039;BME280;62252;50.668;19.530;2022-11-25T06:58:46;58987.19;;;-142.06;100.00
43039;BME280;62252;50.668;19.530;2022-11-25T07:01:22;58987.19;;;-142.06;100.00
43039;BME280;62252;50.668;19.530;2022-11-25T07:03:59;58987.19;;;-142.06;100.00
43039;BME280;62252;50.668;19.530;2022-11-25T07:06:33;58987.19;;;-142.06;100.00
43039;BME280;62252;50.668;19.530;2022-11-25T07:09:10;58987.19;;;-142.06;100.00
43039;BME280;62252;50.668;19.530;2022-11-25T07:11:45;58987.19;;;-142.06;100.00
43039;BME280;62252;50.668;19.530;2022-11-25T07:14:18;58987.19;;;-142.06;100.00
43039;BME280;62252;50.668;19.530;2022-11-25T07:16:52;58987.19;;;-142.06;100.00
43039;BME280;62252;50.668;19.530;2022-11-25T07:19:28;58987.19;;;-142.06;100.00
43039;BME280;62252;50.668;19.530;2022-11-25T07:22:02;58987.19;;;-142.06;100.00
43039;BME280;62252;50.668;19.530;2022-11-25T07:24:38;58987.19;;;-142.06;100.00
43039;BME280;62252;50.668;19.530;2022-11-25T07:27:11;58987.19;;;-142.06;100.00
43039;BME280;62252;50.668;19.530;2022-11-25T07:29:48;58987.19;;;-142.06;100.00
43039;BME280;62252;50.668;19.530;2022-11-25T07:32:21;58987.19;;;-142.06;100.00
43039;BME280;62252;50.668;19.530;2022-11-25T07:34:55;58987.19;;;-142.06;100.00
43039;BME280;62252;50.668;19.530;2022-11-25T07:37:29;58987.19;;;-142.06;100.00
43039;BME280;62252;50.668;19.530;2022-11-25T07:40:06;58987.19;;;-142.06;100.00
43039;BME280;62252;50.668;19.530;2022-11-25T07:42:40;58987.19;;;-142.06;100.00
43039;BME280;62252;50.668;19.530;2022-11-25T07:45:15;58987.19;;;-142.06;100.00
43039;BME280;62252;50.668;19.530;2022-11-25T07:47:54;58987.19;;;-142.06;100.00
43039;BME280;62252;50.668;19.530;2022-11-25T07:50:28;58987.19;;;-142.06;100.00
43039;BME280;62252;50.668;19.530;2022-11-25T07:53:01;58987.19;;;-142.06;100.00
43039;BME280;62252;50.668;19.530;2022-11-25T07:55:37;58987.19;;;-142.06;100.00
43039;BME280;62252;50.668;19.530;2022-11-25T07:58:10;58987.19;;;-142.06;100.00
43039;BME280;62252;50.668;19.530;2022-11-25T08:00:44;58987.19;;;-142.06;100.00
43039;BME280;62252;50.668;19.530;2022-11-25T08:03:18;58987.19;;;-142.06;100.00
43039;BME280;62252;50.668;19.530;2022-11-25T08:05:51;58987.19;;;-142.06;100.00
43039;BME280;62252;50.668;19.530;2022-11-25T08:08:25;58987.19;;;-142.06;100.00
43039;BME280;62252;50.668;19.530;2022-11-25T08:11:05;58987.19;;;-142.06;100.00
43039;BME280;62252;50.668;19.530;2022-11-25T08:13:39;58987.19;;;-142.06;100.00
43039;BME280;62252;50.668;19.530;2022-11-25T08:16:15;58987.19;;;-142.06;100.00
43039;BME280;62252;50.668;19.530;2022-11-25T08:18:49;58987.19;;;-142.06;100.00
43039;BME280;62252;50.668;19.530;2022-11-25T08:21:24;58987.19;;;-142.06;100.00
43039;BME280;62252;50.668;19.530;2022-11-25T08:23:58;58987.19;;;-142.06;100.00
43039;BME280;62252;50.668;19.530;2022-11-25T08:26:35;58987.19;;;-142.06;100.00
43039;BME280;62252;50.668;19.530;2022-11-25T08:29:12;58987.19;;;-142.06;100.00
43039;BME280;62252;50.668;19.530;2022-11-25T08:31:47;58987.19;;;-142.06;100.00
43039;BME280;62252;50.668;19.530;2022-11-25T08:34:22;58987.19;;;-142.06;100.00
43039;BME280;62252;50.668;19.530;2022-11-25T08:37:01;58987.19;;;-142.06;100.00
43039;BME280;62252;50.668;19.530;2022-11-25T08:39:35;58987.19;;;-142.06;100.00
43039;BME280;62252;50.668;19.530;2022-11-25T08:42:11;58987.19;;;-142.06;100.00
43039;BME280;62252;50.668;19.530;2022-11-25T08:44:50;58987.19;;;-142.06;100.00
43039;BME280;62252;50.668;19.530;2022-11-25T08:47:25;58987.19;;;-142.06;100.00
43039;BME280;62252;50.668;19.530;2022-11-25T08:49:58;58987.19;;;-142.06;100.00
43039;BME280;62252;50.668;19.530;2022-11-25T08:52:32;58987.19;;;-142.06;100.00
43039;BME280;62252;50.668;19.530;2022-11-25T08:55:09;58987.19;;;-142.06;100.00
43039;BME280;62252;50.668;19.530;2022-11-25T08:57:46;58987.19;;;-142.06;100.00
43039;BME280;62252;50.668;19.530;2022-11-25T09:00:21;58987.19;;;-142.06;100.00
43039;BME280;62252;50.668;19.530;2022-11-25T09:02:55;58987.19;;;-142.06;100.00
43039;BME280;62252;50.668;19.530;2022-11-25T09:05:28;58987.19;;;-142.06;100.00
43039;BME280;62252;50.668;19.530;2022-11-25T09:08:04;58987.19;;;-142.06;100.00
43039;BME280;62252;50.668;19.530;2022-11-25T09:10:39;58987.19;;;-142.06;100.00
43039;BME280;62252;50.668;19.530;2022-11-25T09:13:15;58987.19;;;-142.06;100.00
43039;BME280;62252;50.668;19.530;2022-11-25T09:15:50;58987.19;;;-142.06;100.00
43039;BME280;62252;50.668;19.530;2022-11-25T09:18:23;58987.19;;;-142.06;100.00
43039;BME280;62252;50.668;19.530;2022-11-25T09:20:58;58987.19;;;-142.06;100.00
43039;BME280;62252;50.668;19.530;2022-11-25T09:23:35;58987.19;;;-142.06;100.00
43039;BME280;62252;50.668;19.530;2022-11-25T09:26:18;58987.19;;;-142.06;100.00
43039;BME280;62252;50.668;19.530;2022-11-25T09:28:56;58987.19;;;-142.06;100.00
43039;BME280;62252;50.668;19.530;2022-11-25T09:31:30;58987.19;;;-142.06;100.00
43039;BME280;62252;50.668;19.530;2022-11-25T09:34:03;58987.19;;;-142.06;100.00
43039;BME280;62252;50.668;19.530;2022-11-25T09:36:37;58987.19;;;-142.06;100.00
43039;BME280;62252;50.668;19.530;2022-11-25T09:39:14;58987.19;;;-142.06;100.00
43039;BME280;62252;50.668;19.530;2022-11-25T09:42:05;58987.19;;;-142.06;100.00
43039;BME280;62252;50.668;19.530;2022-11-25T09:45:05;58987.19;;;-142.06;100.00
43039;BME280;62252;50.668;19.530;2022-11-25T09:48:18;58987.19;;;-142.06;100.00
43039;BME280;62252;50.668;19.530;2022-11-25T09:51:01;58987.19;;;-142.06;100.00
43039;BME280;62252;50.668;19.530;2022-11-25T09:53:42;58987.19;;;-142.06;100.00
43039;BME280;62252;50.668;19.530;2022-11-25T09:56:27;58987.19;;;-142.06;100.00
43039;BME280;62252;50.668;19.530;2022-11-25T09:59:06;58987.19;;;-142.06;100.00
43039;BME280;62252;50.668;19.530;2022-11-25T10:01:49;58987.19;;;-142.06;100.00
43039;BME280;62252;50.668;19.530;2022-11-25T10:04:28;58987.19;;;-142.06;100.00
43039;BME280;62252;50.668;19.530;2022-11-25T10:07:10;58987.19;;;-142.06;100.00
43039;BME280;62252;50.668;19.530;2022-11-25T10:09:52;58987.19;;;-142.06;100.00
43039;BME280;62252;50.668;19.530;2022-11-25T10:12:28;58987.19;;;-142.06;100.00
43039;BME280;62252;50.668;19.530;2022-11-25T10:15:05;58987.19;;;-142.06;100.00
43039;BME280;62252;50.668;19.530;2022-11-25T10:17:46;58987.19;;;-142.06;100.00
43039;BME280;62252;50.668;19.530;2022-11-25T10:20:24;58987.19;;;-142.06;100.00
43039;BME280;62252;50.668;19.530;2022-11-25T10:23:01;58987.19;;;-142.06;100.00
43039;BME280;62252;50.668;19.530;2022-11-25T10:25:38;58987.19;;;-142.06;100.00
43039;BME280;62252;50.668;19.530;2022-11-25T10:28:18;58987.19;;;-142.06;100.00
43039;BME280;62252;50.668;19.530;2022-11-25T10:30:59;58987.19;;;-142.06;100.00
43039;BME280;62252;50.668;19.530;2022-11-25T10:33:40;58987.19;;;-142.06;100.00
43039;BME280;62252;50.668;19.530;2022-11-25T10:36:18;58987.19;;;-142.06;100.00
43039;BME280;62252;50.668;19.530;2022-11-25T10:38:58;58987.19;;;-142.06;100.00
43039;BME280;62252;50.668;19.530;2022-11-25T10:41:42;58987.19;;;-142.06;100.00
43039;BME280;62252;50.668;19.530;2022-11-25T10:44:24;58987.19;;;-142.06;100.00
43039;BME280;62252;50.668;19.530;2022-11-25T10:47:07;58987.19;;;-142.06;100.00
43039;BME280;62252;50.668;19.530;2022-11-25T10:49:56;58987.19;;;-142.06;100.00
43039;BME280;62252;50.668;19.530;2022-11-25T10:52:35;58987.19;;;-142.06;100.00
43039;BME280;62252;50.668;19.530;2022-11-25T10:55:14;58987.19;;;-142.06;100.00
43039;BME280;62252;50.668;19.530;2022-11-25T10:57:49;58987.19;;;-142.06;100.00
43039;BME280;62252;50.668;19.530;2022-11-25T11:00:30;58987.19;;;-142.06;100.00
43039;BME280;62252;50.668;19.530;2022-11-25T11:03:13;58987.19;;;-142.06;100.00
43039;BME280;62252;50.668;19.530;2022-11-25T11:05:52;58987.19;;;-142.06;100.00
43039;BME280;62252;50.668;19.530;2022-11-25T11:08:29;58987.19;;;-142.06;100.00
43039;BME280;62252;50.668;19.530;2022-11-25T11:11:17;58987.19;;;-142.06;100.00
43039;BME280;62252;50.668;19.530;2022-11-25T11:13:58;58987.19;;;-142.06;100.00
43039;BME280;62252;50.668;19.530;2022-11-25T11:16:35;58987.19;;;-142.06;100.00
43039;BME280;62252;50.668;19.530;2022-11-25T11:19:22;58987.19;;;-142.06;100.00
43039;BME280;62252;50.668;19.530;2022-11-25T11:25:04;58987.19;;;-142.06;100.00
43039;BME280;62252;50.668;19.530;2022-11-25T11:27:41;58987.19;;;-142.06;100.00
43039;BME280;62252;50.668;19.530;2022-11-25T11:30:19;58987.19;;;-142.06;100.00
43039;BME280;62252;50.668;19.530;2022-11-25T11:32:57;58987.19;;;-142.06;100.00
43039;BME280;62252;50.668;19.530;2022-11-25T11:35:49;58987.19;;;-142.06;100.00
43039;BME280;62252;50.668;19.530;2022-11-25T11:38:31;58987.19;;;-142.06;100.00
43039;BME280;62252;50.668;19.530;2022-11-25T11:41:17;58987.19;;;-142.06;100.00
43039;BME280;62252;50.668;19.530;2022-11-25T11:44:04;58987.19;;;-142.06;100.00
43039;BME280;62252;50.668;19.530;2022-11-25T11:46:53;58987.19;;;-142.06;100.00
43039;BME280;62252;50.668;19.530;2022-11-25T11:49:55;58987.19;;;-142.06;100.00
43039;BME280;62252;50.668;19.530;2022-11-25T11:52:41;58987.19;;;-142.06;100.00
43039;BME280;62252;50.668;19.530;2022-11-25T11:55:35;58987.19;;;-142.06;100.00
43039;BME280;62252;50.668;19.530;2022-11-25T11:58:32;58987.19;;;-142.06;100.00
43039;BME280;62252;50.668;19.530;2022-11-25T12:01:24;58987.19;;;-142.06;100.00
43039;BME280;62252;50.668;19.530;2022-11-25T12:04:14;58987.19;;;-142.06;100.00
43039;BME280;62252;50.668;19.530;2022-11-25T12:06:58;58987.19;;;-142.06;100.00
43039;BME280;62252;50.668;19.530;2022-11-25T12:09:36;58987.19;;;-142.06;100.00
43039;BME280;62252;50.668;19.530;2022-11-25T12:12:17;58987.19;;;-142.06;100.00
43039;BME280;62252;50.668;19.530;2022-11-25T12:14:59;58987.19;;;-142.06;100.00
43039;BME280;62252;50.668;19.530;2022-11-25T12:17:40;58987.19;;;-142.06;100.00
43039;BME280;62252;50.668;19.530;2022-11-25T12:20:21;58987.19;;;-142.06;100.00
43039;BME280;62252;50.668;19.530;2022-11-25T12:23:10;58987.19;;;-142.06;100.00
43039;BME280;62252;50.668;19.530;2022-11-25T12:25:49;58987.19;;;-142.06;100.00
43039;BME280;62252;50.668;19.530;2022-11-25T12:28:34;58987.19;;;-142.06;100.00
43039;BME280;62252;50.668;19.530;2022-11-25T12:31:17;58987.19;;;-142.06;100.00
43039;BME280;62252;50.668;19.530;2022-11-25T12:33:58;58987.19;;;-142.06;100.00
43039;BME280;62252;50.668;19.530;2022-11-25T12:36:36;58987.19;;;-142.06;100.00
43039;BME280;62252;50.668;19.530;2022-11-25T12:39:19;58987.19;;;-142.06;100.00
43039;BME280;62252;50.668;19.530;2022-11-25T12:42:00;58987.19;;;-142.06;100.00
43039;BME280;62252;50.668;19.530;2022-11-25T12:44:39;58987.19;;;-142.06;100.00
43039;BME280;62252;50.668;19.530;2022-11-25T12:47:20;58987.19;;;-142.06;100.00
43039;BME280;62252;50.668;19.530;2022-11-25T12:49:54;58987.19;;;-142.06;100.00
43039;BME280;62252;50.668;19.530;2022-11-25T12:52:43;58987.19;;;-142.06;100.00
43039;BME280;62252;50.668;19.530;2022-11-25T12:55:22;58987.19;;;-142.06;100.00
43039;BME280;62252;50.668;19.530;2022-11-25T12:58:18;58987.19;;;-142.06;100.00
43039;BME280;62252;50.668;19.530;2022-11-25T13:07:24;58987.19;;;-142.06;100.00
43039;BME280;62252;50.668;19.530;2022-11-25T13:10:27;58987.19;;;-142.06;100.00
43039;BME280;62252;50.668;19.530;2022-11-25T13:13:37;58987.19;;;-142.06;100.00
43039;BME280;62252;50.668;19.530;2022-11-25T13:16:14;58987.19;;;-142.06;100.00
43039;BME280;62252;50.668;19.530;2022-11-25T13:18:49;58987.19;;;-142.06;100.00
43039;BME280;62252;50.668;19.530;2022-11-25T13:21:22;58987.19;;;-142.06;100.00
43039;BME280;62252;50.668;19.530;2022-11-25T13:23:59;58987.19;;;-142.06;100.00
43039;BME280;62252;50.668;19.530;2022-11-25T13:26:48;58987.19;;;-142.06;100.00
43039;BME280;62252;50.668;19.530;2022-11-25T13:32:34;58987.19;;;-142.06;100.00
43039;BME280;62252;50.668;19.530;2022-11-25T13:41:43;58987.19;;;-142.06;100.00
43039;BME280;62252;50.668;19.530;2022-11-25T13:44:24;58987.19;;;-142.06;100.00
43039;BME280;62252;50.668;19.530;2022-11-25T13:47:29;58987.19;;;-142.06;100.00